sensor_id;sensor_type;location;lat;lon;timestamp;pressure;altitude;pressure_sealevel;temperature;humidity
51417;BME280;50158;51.528;6.982;2022-11-27T00:01:26;66920;;;5.02;100
51417;BME280;50158;51.528;6.982;2022-11-27T00:03:54;66920;;;5.01;100
51417;BME280;50158;51.528;6.982;2022-11-27T00:06:22;66910;;;4.92;100
51417;BME280;50158;51.528;6.982;2022-11-27T00:08:50;66900;;;4.83;100
51417;BME280;50158;51.528;6.982;2022-11-27T00:11:19;66900;;;4.84;100
51417;BME280;50158;51.528;6.982;2022-11-27T00:13:47;66890;;;4.8;100
51417;BME280;50158;51.528;6.982;2022-11-27T00:16:15;66900;;;4.84;100
51417;BME280;50158;51.528;6.982;2022-11-27T00:18:43;66910;;;4.92;100
51417;BME280;50158;51.528;6.982;2022-11-27T00:23:40;66910;;;4.94;100
51417;BME280;50158;51.528;6.982;2022-11-27T00:26:08;66900;;;4.91;100
51417;BME280;50158;51.528;6.982;2022-11-27T00:28:36;66910;;;4.94;100
51417;BME280;50158;51.528;6.982;2022-11-27T00:31:06;66900;;;4.88;100
51417;BME280;50158;51.528;6.982;2022-11-27T00:33:33;66900;;;4.88;100
51417;BME280;50158;51.528;6.982;2022-11-27T00:36:02;66900;;;4.86;100
51417;BME280;50158;51.528;6.982;2022-11-27T00:41:15;66900;;;4.89;100
51417;BME280;50158;51.528;6.982;2022-11-27T00:43:43;66900;;;4.9;100
51417;BME280;50158;51.528;6.982;2022-11-27T00:46:12;66910;;;4.92;100
51417;BME280;50158;51.528;6.982;2022-11-27T00:50:34;66890;;;4.77;100
51417;BME280;50158;51.528;6.982;2022-11-27T00:55:31;66870;;;4.6;100
51417;BME280;50158;51.528;6.982;2022-11-27T00:57:59;66880;;;4.65;100
51417;BME280;50158;51.528;6.982;2022-11-27T01:00:27;66880;;;4.69;100
51417;BME280;50158;51.528;6.982;2022-11-27T01:02:56;66870;;;4.64;100
51417;BME280;50158;51.528;6.982;2022-11-27T01:05:24;66860;;;4.5;100
51417;BME280;50158;51.528;6.982;2022-11-27T01:07:52;66850;;;4.36;100
51417;BME280;50158;51.528;6.982;2022-11-27T01:10:21;66850;;;4.41;100
51417;BME280;50158;51.528;6.982;2022-11-27T01:12:49;66830;;;4.19;100
51417;BME280;50158;51.528;6.982;2022-11-27T01:15:17;66830;;;4.23;100
51417;BME280;50158;51.528;6.982;2022-11-27T01:17:45;66830;;;4.17;100
51417;BME280;50158;51.528;6.982;2022-11-27T01:20:14;66810;;;4.07;100
51417;BME280;50158;51.528;6.982;2022-11-27T01:22:42;66830;;;4.21;100
51417;BME280;50158;51.528;6.982;2022-11-27T01:25:10;66840;;;4.32;100
51417;BME280;50158;51.528;6.982;2022-11-27T01:27:38;66840;;;4.3;100
51417;BME280;50158;51.528;6.982;2022-11-27T01:30:07;66850;;;4.39;100
51417;BME280;50158;51.528;6.982;2022-11-27T01:32:35;66850;;;4.42;100
51417;BME280;50158;51.528;6.982;2022-11-27T01:35:03;66850;;;4.42;100
51417;BME280;50158;51.528;6.982;2022-11-27T01:37:32;66850;;;4.41;100
51417;BME280;50158;51.528;6.982;2022-11-27T01:40:00;66850;;;4.42;100
51417;BME280;50158;51.528;6.982;2022-11-27T01:42:28;66850;;;4.4;100
51417;BME280;50158;51.528;6.982;2022-11-27T01:44:56;66840;;;4.3;100
51417;BME280;50158;51.528;6.982;2022-11-27T01:47:27;66840;;;4.29;100
51417;BME280;50158;51.528;6.982;2022-11-27T01:49:53;66830;;;4.19;100
51417;BME280;50158;51.528;6.982;2022-11-27T01:52:26;66810;;;4.02;100
51417;BME280;50158;51.528;6.982;2022-11-27T01:56:46;66810;;;4.05;100
51417;BME280;50158;51.528;6.982;2022-11-27T01:59:13;66800;;;3.92;100
51417;BME280;50158;51.528;6.982;2022-11-27T02:01:42;66800;;;3.92;100
51417;BME280;50158;51.528;6.982;2022-11-27T02:06:38;66780;;;3.71;100
51417;BME280;50158;51.528;6.982;2022-11-27T02:09:06;66780;;;3.74;100
51417;BME280;50158;51.528;6.982;2022-11-27T02:11:38;66750;;;3.45;100
51417;BME280;50158;51.528;6.982;2022-11-27T02:15:10;66750;;;3.44;100
51417;BME280;50158;51.528;6.982;2022-11-27T02:16:35;66730;;;3.29;100
51417;BME280;50158;51.528;6.982;2022-11-27T02:21:33;66720;;;3.21;100
51417;BME280;50158;51.528;6.982;2022-11-27T02:24:07;66730;;;3.25;100
51417;BME280;50158;51.528;6.982;2022-11-27T02:28:55;66720;;;3.18;100
51417;BME280;50158;51.528;6.982;2022-11-27T02:31:23;66720;;;3.2;100
51417;BME280;50158;51.528;6.982;2022-11-27T02:33:51;66720;;;3.23;100
51417;BME280;50158;51.528;6.982;2022-11-27T02:36:18;66720;;;3.16;100
51417;BME280;50158;51.528;6.982;2022-11-27T02:38:48;66720;;;3.23;100
51417;BME280;50158;51.528;6.982;2022-11-27T02:41:16;66720;;;3.22;100
51417;BME280;50158;51.528;6.982;2022-11-27T02:43:46;66710;;;3.07;100
51417;BME280;50158;51.528;6.982;2022-11-27T02:46:11;66710;;;3.08;100
51417;BME280;50158;51.528;6.982;2022-11-27T02:48:56;66700;;;2.98;100
51417;BME280;50158;51.528;6.982;2022-11-27T02:51:07;66690;;;2.88;100
51417;BME280;50158;51.528;6.982;2022-11-27T02:53:37;66680;;;2.77;100
51417;BME280;50158;51.528;6.982;2022-11-27T02:57:59;66640;;;2.49;100
51417;BME280;50158;51.528;6.982;2022-11-27T03:02:56;66650;;;2.59;100
51417;BME280;50158;51.528;6.982;2022-11-27T03:05:25;66670;;;2.74;100
51417;BME280;50158;51.528;6.982;2022-11-27T03:11:09;66640;;;2.47;100
51417;BME280;50158;51.528;6.982;2022-11-27T03:13:05;66660;;;2.66;100
51417;BME280;50158;51.528;6.982;2022-11-27T03:15:38;66670;;;2.68;100
51417;BME280;50158;51.528;6.982;2022-11-27T03:18:06;66660;;;2.62;100
51417;BME280;50158;51.528;6.982;2022-11-27T03:20:31;66640;;;2.4;100
51417;BME280;50158;51.528;6.982;2022-11-27T03:22:58;66640;;;2.45;100
51417;BME280;50158;51.528;6.982;2022-11-27T03:25:27;66650;;;2.59;100
51417;BME280;50158;51.528;6.982;2022-11-27T03:27:59;66650;;;2.5;100
51417;BME280;50158;51.528;6.982;2022-11-27T03:30:23;66660;;;2.61;100
51417;BME280;50158;51.528;6.982;2022-11-27T03:32:51;66650;;;2.58;100
51417;BME280;50158;51.528;6.982;2022-11-27T03:35:20;66660;;;2.65;100
51417;BME280;50158;51.528;6.982;2022-11-27T03:37:48;66660;;;2.62;100
51417;BME280;50158;51.528;6.982;2022-11-27T03:40:16;66640;;;2.48;100
51417;BME280;50158;51.528;6.982;2022-11-27T03:43:02;66660;;;2.68;100
51417;BME280;50158;51.528;6.982;2022-11-27T03:45:21;66660;;;2.63;100
51417;BME280;50158;51.528;6.982;2022-11-27T03:47:47;66700;;;2.96;100
51417;BME280;50158;51.528;6.982;2022-11-27T03:54:41;66720;;;3.23;100
51417;BME280;50158;51.528;6.982;2022-11-27T03:57:06;66730;;;3.31;100
51417;BME280;50158;51.528;6.982;2022-11-27T03:59:31;66750;;;3.46;100
51417;BME280;50158;51.528;6.982;2022-11-27T04:01:58;66750;;;3.45;100
51417;BME280;50158;51.528;6.982;2022-11-27T04:04:26;66760;;;3.56;100
51417;BME280;50158;51.528;6.982;2022-11-27T04:06:54;66770;;;3.64;100
51417;BME280;50158;51.528;6.982;2022-11-27T04:09:23;66760;;;3.59;100
51417;BME280;50158;51.528;6.982;2022-11-27T04:11:51;66780;;;3.72;100
51417;BME280;50158;51.528;6.982;2022-11-27T04:14:19;66780;;;3.75;100
51417;BME280;50158;51.528;6.982;2022-11-27T04:16:48;66800;;;3.9;100
51417;BME280;50158;51.528;6.982;2022-11-27T04:19:16;66800;;;3.98;100
51417;BME280;50158;51.528;6.982;2022-11-27T04:24:12;66800;;;3.97;100
51417;BME280;50158;51.528;6.982;2022-11-27T04:26:41;66810;;;4.01;100
51417;BME280;50158;51.528;6.982;2022-11-27T04:29:09;66810;;;3.98;100
51417;BME280;50158;51.528;6.982;2022-11-27T04:31:37;66820;;;4.09;100
51417;BME280;50158;51.528;6.982;2022-11-27T04:34:05;66840;;;4.26;100
51417;BME280;50158;51.528;6.982;2022-11-27T04:36:34;66830;;;4.23;100
51417;BME280;50158;51.528;6.982;2022-11-27T04:39:02;66830;;;4.23;100
51417;BME280;50158;51.528;6.982;2022-11-27T04:41:30;66820;;;4.17;100
51417;BME280;50158;51.528;6.982;2022-11-27T04:43:59;66820;;;4.13;100
51417;BME280;50158;51.528;6.982;2022-11-27T04:46:27;66820;;;4.09;100
51417;BME280;50158;51.528;6.982;2022-11-27T04:48:55;66810;;;4.05;100
51417;BME280;50158;51.528;6.982;2022-11-27T04:53:52;66850;;;4.35;100
51417;BME280;50158;51.528;6.982;2022-11-27T04:56:20;66830;;;4.25;100
51417;BME280;50158;51.528;6.982;2022-11-27T04:58:48;66850;;;4.39;100
51417;BME280;50158;51.528;6.982;2022-11-27T05:01:17;66850;;;4.42;100
51417;BME280;50158;51.528;6.982;2022-11-27T05:03:45;66840;;;4.34;100
51417;BME280;50158;51.528;6.982;2022-11-27T05:06:13;66860;;;4.44;100
51417;BME280;50158;51.528;6.982;2022-11-27T05:08:41;66850;;;4.42;100
51417;BME280;50158;51.528;6.982;2022-11-27T05:13:05;66870;;;4.54;100
51417;BME280;50158;51.528;6.982;2022-11-27T05:15:33;66860;;;4.48;100
51417;BME280;50158;51.528;6.982;2022-11-27T05:18:02;66870;;;4.55;100
51417;BME280;50158;51.528;6.982;2022-11-27T05:20:30;66880;;;4.67;100
51417;BME280;50158;51.528;6.982;2022-11-27T05:22:58;66890;;;4.73;100
51417;BME280;50158;51.528;6.982;2022-11-27T05:30:23;66920;;;5.02;100
51417;BME280;50158;51.528;6.982;2022-11-27T05:32:51;66920;;;5.06;100
51417;BME280;50158;51.528;6.982;2022-11-27T05:37:48;66910;;;4.98;100
51417;BME280;50158;51.528;6.982;2022-11-27T05:45:45;66940;;;5.24;100
51417;BME280;50158;51.528;6.982;2022-11-27T05:50:42;66960;;;5.42;100
51417;BME280;50158;51.528;6.982;2022-11-27T05:55:39;66960;;;5.4;100
51417;BME280;50158;51.528;6.982;2022-11-27T06:00:35;66970;;;5.5;100
51417;BME280;50158;51.528;6.982;2022-11-27T06:05:32;66960;;;5.42;100
51417;BME280;50158;51.528;6.982;2022-11-27T06:08:00;66960;;;5.44;100
51417;BME280;50158;51.528;6.982;2022-11-27T06:15:25;66960;;;5.42;100
51417;BME280;50158;51.528;6.982;2022-11-27T06:19:49;66970;;;5.54;100
51417;BME280;50158;51.528;6.982;2022-11-27T06:22:17;66980;;;5.58;100
51417;BME280;50158;51.528;6.982;2022-11-27T06:24:45;66990;;;5.73;100
51417;BME280;50158;51.528;6.982;2022-11-27T06:27:13;67000;;;5.81;100
51417;BME280;50158;51.528;6.982;2022-11-27T06:29:42;67010;;;5.87;100
51417;BME280;50158;51.528;6.982;2022-11-27T06:32:10;67010;;;5.92;100
51417;BME280;50158;51.528;6.982;2022-11-27T06:34:38;67030;;;6.02;100
51417;BME280;50158;51.528;6.982;2022-11-27T06:37:07;67030;;;6.05;100
51417;BME280;50158;51.528;6.982;2022-11-27T06:39:35;67030;;;6.1;100
51417;BME280;50158;51.528;6.982;2022-11-27T06:42:03;67040;;;6.2;100
51417;BME280;50158;51.528;6.982;2022-11-27T06:44:31;67040;;;6.16;100
51417;BME280;50158;51.528;6.982;2022-11-27T06:47:00;67040;;;6.15;100
51417;BME280;50158;51.528;6.982;2022-11-27T06:49:28;67040;;;6.13;100
51417;BME280;50158;51.528;6.982;2022-11-27T06:51:56;67040;;;6.18;100
51417;BME280;50158;51.528;6.982;2022-11-27T06:54:24;67050;;;6.22;100
51417;BME280;50158;51.528;6.982;2022-11-27T06:56:53;67050;;;6.23;100
51417;BME280;50158;51.528;6.982;2022-11-27T06:59:21;67040;;;6.14;100
51417;BME280;50158;51.528;6.982;2022-11-27T07:01:49;67040;;;6.12;100
51417;BME280;50158;51.528;6.982;2022-11-27T07:04:18;67040;;;6.13;100
51417;BME280;50158;51.528;6.982;2022-11-27T07:06:46;67050;;;6.25;100
51417;BME280;50158;51.528;6.982;2022-11-27T07:11:12;67030;;;6.1;100
51417;BME280;50158;51.528;6.982;2022-11-27T07:13:38;67050;;;6.26;100
51417;BME280;50158;51.528;6.982;2022-11-27T07:16:08;67040;;;6.19;100
51417;BME280;50158;51.528;6.982;2022-11-27T07:18:36;67030;;;6.1;100
51417;BME280;50158;51.528;6.982;2022-11-27T07:21:03;67040;;;6.14;100
51417;BME280;50158;51.528;6.982;2022-11-27T07:23:31;67040;;;6.13;100
51417;BME280;50158;51.528;6.982;2022-11-27T07:26:03;67030;;;6.09;100
51417;BME280;50158;51.528;6.982;2022-11-27T07:28:28;67040;;;6.16;100
51417;BME280;50158;51.528;6.982;2022-11-27T07:30:56;67040;;;6.18;100
51417;BME280;50158;51.528;6.982;2022-11-27T07:33:24;67040;;;6.17;100
51417;BME280;50158;51.528;6.982;2022-11-27T07:36:00;67050;;;6.23;100
51417;BME280;50158;51.528;6.982;2022-11-27T07:38:21;67060;;;6.33;100
51417;BME280;50158;51.528;6.982;2022-11-27T07:40:49;67060;;;6.35;100
51417;BME280;50158;51.528;6.982;2022-11-27T07:43:17;67070;;;6.46;100
51417;BME280;50158;51.528;6.982;2022-11-27T07:45:45;67070;;;6.44;100
51417;BME280;50158;51.528;6.982;2022-11-27T07:48:14;67070;;;6.46;100
51417;BME280;50158;51.528;6.982;2022-11-27T07:50:42;67060;;;6.39;100
51417;BME280;50158;51.528;6.982;2022-11-27T07:53:10;67060;;;6.37;100
51417;BME280;50158;51.528;6.982;2022-11-27T07:55:39;67060;;;6.37;100
51417;BME280;50158;51.528;6.982;2022-11-27T07:58:07;67060;;;6.34;100
51417;BME280;50158;51.528;6.982;2022-11-27T08:00:35;67060;;;6.34;100
51417;BME280;50158;51.528;6.982;2022-11-27T08:03:03;67080;;;6.49;100
51417;BME280;50158;51.528;6.982;2022-11-27T08:08:00;67090;;;6.62;100
51417;BME280;50158;51.528;6.982;2022-11-27T08:12:24;67090;;;6.66;100
51417;BME280;50158;51.528;6.982;2022-11-27T08:14:52;67110;;;6.81;100
51417;BME280;50158;51.528;6.982;2022-11-27T08:17:20;67110;;;6.77;100
51417;BME280;50158;51.528;6.982;2022-11-27T08:19:49;67120;;;6.9;100
51417;BME280;50158;51.528;6.982;2022-11-27T08:22:17;67120;;;6.94;100
51417;BME280;50158;51.528;6.982;2022-11-27T08:24:45;67130;;;6.99;100
51417;BME280;50158;51.528;6.982;2022-11-27T08:27:13;67150;;;7.18;100
51417;BME280;50158;51.528;6.982;2022-11-27T08:29:42;67160;;;7.24;100
51417;BME280;50158;51.528;6.982;2022-11-27T08:32:10;67160;;;7.29;100
51417;BME280;50158;51.528;6.982;2022-11-27T08:34:38;67190;;;7.51;100
51417;BME280;50158;51.528;6.982;2022-11-27T08:37:06;67200;;;7.66;100
51417;BME280;50158;51.528;6.982;2022-11-27T08:39:35;67210;;;7.72;100
51417;BME280;50158;51.528;6.982;2022-11-27T08:42:03;67220;;;7.85;100
51417;BME280;50158;51.528;6.982;2022-11-27T08:44:31;67240;;;8.01;100
51417;BME280;50158;51.528;6.982;2022-11-27T08:47:00;67240;;;7.99;100
51417;BME280;50158;51.528;6.982;2022-11-27T08:49:28;67250;;;8.1;100
51417;BME280;50158;51.528;6.982;2022-11-27T08:51:56;67250;;;8.12;100
51417;BME280;50158;51.528;6.982;2022-11-27T08:54:24;67250;;;8.07;100
51417;BME280;50158;51.528;6.982;2022-11-27T08:56:53;67260;;;8.24;100
51417;BME280;50158;51.528;6.982;2022-11-27T08:59:21;67280;;;8.35;100
51417;BME280;50158;51.528;6.982;2022-11-27T09:01:49;67300;;;8.55;100
51417;BME280;50158;51.528;6.982;2022-11-27T09:04:18;67300;;;8.55;100
51417;BME280;50158;51.528;6.982;2022-11-27T09:06:46;67310;;;8.68;100
51417;BME280;50158;51.528;6.982;2022-11-27T09:09:14;67330;;;8.85;100
51417;BME280;50158;51.528;6.982;2022-11-27T09:13:38;67320;;;8.78;100
51417;BME280;50158;51.528;6.982;2022-11-27T09:16:08;67310;;;8.64;100
51417;BME280;50158;51.528;6.982;2022-11-27T09:18:34;67290;;;8.47;100
51417;BME280;50158;51.528;6.982;2022-11-27T09:21:04;67300;;;8.54;100
51417;BME280;50158;51.528;6.982;2022-11-27T09:23:31;67310;;;8.68;100
51417;BME280;50158;51.528;6.982;2022-11-27T09:26:00;67320;;;8.79;100
51417;BME280;50158;51.528;6.982;2022-11-27T09:28:28;67320;;;8.72;100
51417;BME280;50158;51.528;6.982;2022-11-27T09:30:56;67310;;;8.68;100
51417;BME280;50158;51.528;6.982;2022-11-27T09:33:25;67330;;;8.89;100
51417;BME280;50158;51.528;6.982;2022-11-27T09:35:52;67330;;;8.87;100
51417;BME280;50158;51.528;6.982;2022-11-27T09:38:21;67340;;;8.96;100
51417;BME280;50158;51.528;6.982;2022-11-27T09:40:50;67360;;;9.1;100
51417;BME280;50158;51.528;6.982;2022-11-27T09:43:19;67360;;;9.14;100
51417;BME280;50158;51.528;6.982;2022-11-27T09:45:47;67380;;;9.29;100
51417;BME280;50158;51.528;6.982;2022-11-27T09:48:17;67390;;;9.38;100
51417;BME280;50158;51.528;6.982;2022-11-27T09:50:43;67410;;;9.56;95.47
51417;BME280;50158;51.528;6.982;2022-11-27T09:53:14;67410;;;9.56;96.65
51417;BME280;50158;51.528;6.982;2022-11-27T09:55:41;67430;;;9.74;95.07
51417;BME280;50158;51.528;6.982;2022-11-27T09:58:12;67430;;;9.78;89.18
51417;BME280;50158;51.528;6.982;2022-11-27T10:00:35;67420;;;9.72;91.67
51417;BME280;50158;51.528;6.982;2022-11-27T10:03:06;67440;;;9.87;92.34
51417;BME280;50158;51.528;6.982;2022-11-27T10:05:33;67470;;;10.12;90.03
51417;BME280;50158;51.528;6.982;2022-11-27T10:08:05;67460;;;10.06;88.73
51417;BME280;50158;51.528;6.982;2022-11-27T10:10:33;67470;;;10.14;86.85
51417;BME280;50158;51.528;6.982;2022-11-27T10:16:00;67440;;;9.85;86.09
51417;BME280;50158;51.528;6.982;2022-11-27T10:17:24;67450;;;9.93;90.24
51417;BME280;50158;51.528;6.982;2022-11-27T10:19:50;67450;;;10;87.62
51417;BME280;50158;51.528;6.982;2022-11-27T10:22:18;67460;;;10.01;91.76
51417;BME280;50158;51.528;6.982;2022-11-27T10:24:52;67470;;;10.18;88.7
51417;BME280;50158;51.528;6.982;2022-11-27T10:27:19;67440;;;9.85;85.7
51417;BME280;50158;51.528;6.982;2022-11-27T10:29:42;67450;;;9.99;88.48
51417;BME280;50158;51.528;6.982;2022-11-27T10:32:12;67460;;;10.07;88.04
51417;BME280;50158;51.528;6.982;2022-11-27T10:34:42;67470;;;10.1;90.06
51417;BME280;50158;51.528;6.982;2022-11-27T10:39:53;67480;;;10.21;88.2
51417;BME280;50158;51.528;6.982;2022-11-27T10:42:22;67470;;;10.14;86.6
51417;BME280;50158;51.528;6.982;2022-11-27T10:44:50;67450;;;10;92.27
51417;BME280;50158;51.528;6.982;2022-11-27T10:47:16;67460;;;10.02;88.78
51417;BME280;50158;51.528;6.982;2022-11-27T10:49:45;67440;;;9.91;89.95
51417;BME280;50158;51.528;6.982;2022-11-27T10:52:14;67450;;;9.95;88.14
51417;BME280;50158;51.528;6.982;2022-11-27T10:54:41;67450;;;9.93;91.16
51417;BME280;50158;51.528;6.982;2022-11-27T10:59:41;67430;;;9.75;92.18
51417;BME280;50158;51.528;6.982;2022-11-27T11:02:22;67440;;;9.84;91.84
51417;BME280;50158;51.528;6.982;2022-11-27T11:04:34;67440;;;9.85;92.05
51417;BME280;50158;51.528;6.982;2022-11-27T11:07:02;67430;;;9.79;92.68
51417;BME280;50158;51.528;6.982;2022-11-27T11:09:31;67430;;;9.76;90.69
51417;BME280;50158;51.528;6.982;2022-11-27T11:12:07;67410;;;9.63;90.71
51417;BME280;50158;51.528;6.982;2022-11-27T11:16:24;67400;;;9.52;94.34
51417;BME280;50158;51.528;6.982;2022-11-27T11:18:51;67400;;;9.46;94.72
51417;BME280;50158;51.528;6.982;2022-11-27T11:21:51;67390;;;9.43;92.87
51417;BME280;50158;51.528;6.982;2022-11-27T11:23:56;67380;;;9.35;97.16
51417;BME280;50158;51.528;6.982;2022-11-27T11:26:24;67370;;;9.24;98.13
51417;BME280;50158;51.528;6.982;2022-11-27T11:28:48;67360;;;9.18;100
51417;BME280;50158;51.528;6.982;2022-11-27T11:31:12;67370;;;9.22;100
51417;BME280;50158;51.528;6.982;2022-11-27T11:33:49;67370;;;9.18;100
51417;BME280;50158;51.528;6.982;2022-11-27T11:36:09;67360;;;9.12;100
51417;BME280;50158;51.528;6.982;2022-11-27T11:38:40;67350;;;9.07;100
51417;BME280;50158;51.528;6.982;2022-11-27T11:41:05;67350;;;9.03;100
51417;BME280;50158;51.528;6.982;2022-11-27T11:43:34;67340;;;8.93;100
51417;BME280;50158;51.528;6.982;2022-11-27T11:46:04;67340;;;8.91;100
51417;BME280;50158;51.528;6.982;2022-11-27T11:48:30;67340;;;8.95;100
51417;BME280;50158;51.528;6.982;2022-11-27T11:51:15;67340;;;8.91;100
51417;BME280;50158;51.528;6.982;2022-11-27T11:53:31;67340;;;8.92;100
51417;BME280;50158;51.528;6.982;2022-11-27T11:56:08;67340;;;8.96;100
51417;BME280;50158;51.528;6.982;2022-11-27T11:58:31;67340;;;8.93;100
51417;BME280;50158;51.528;6.982;2022-11-27T12:00:55;67340;;;8.92;100
51417;BME280;50158;51.528;6.982;2022-11-27T12:03:37;67340;;;8.91;100
51417;BME280;50158;51.528;6.982;2022-11-27T12:08:25;67320;;;8.78;100
51417;BME280;50158;51.528;6.982;2022-11-27T12:11:16;67310;;;8.67;100
51417;BME280;50158;51.528;6.982;2022-11-27T12:13:20;67310;;;8.63;100
51417;BME280;50158;51.528;6.982;2022-11-27T12:15:43;67310;;;8.63;100
51417;BME280;50158;51.528;6.982;2022-11-27T12:18:17;67320;;;8.72;100
51417;BME280;50158;51.528;6.982;2022-11-27T12:22:43;67320;;;8.78;100
51417;BME280;50158;51.528;6.982;2022-11-27T12:26:14;67330;;;8.83;100
51417;BME280;50158;51.528;6.982;2022-11-27T12:28:06;67330;;;8.87;100
51417;BME280;50158;51.528;6.982;2022-11-27T12:30:03;67330;;;8.83;100
51417;BME280;50158;51.528;6.982;2022-11-27T12:32:32;67340;;;8.91;100
51417;BME280;50158;51.528;6.982;2022-11-27T12:34:58;67340;;;8.97;100
51417;BME280;50158;51.528;6.982;2022-11-27T12:37:27;67350;;;9.05;100
51417;BME280;50158;51.528;6.982;2022-11-27T12:39:56;67350;;;9.08;100
51417;BME280;50158;51.528;6.982;2022-11-27T12:42:24;67350;;;9.07;100
51417;BME280;50158;51.528;6.982;2022-11-27T12:44:54;67360;;;9.16;100
51417;BME280;50158;51.528;6.982;2022-11-27T12:47:18;67380;;;9.31;100
51417;BME280;50158;51.528;6.982;2022-11-27T12:49:49;67390;;;9.43;100
51417;BME280;50158;51.528;6.982;2022-11-27T12:52:15;67390;;;9.42;100
51417;BME280;50158;51.528;6.982;2022-11-27T12:54:43;67390;;;9.41;100
51417;BME280;50158;51.528;6.982;2022-11-27T12:57:12;67400;;;9.46;100
51417;BME280;50158;51.528;6.982;2022-11-27T12:59:40;67400;;;9.47;100
51417;BME280;50158;51.528;6.982;2022-11-27T13:02:19;67390;;;9.37;100
51417;BME280;50158;51.528;6.982;2022-11-27T13:04:36;67390;;;9.42;100
51417;BME280;50158;51.528;6.982;2022-11-27T13:09:54;67390;;;9.42;100
51417;BME280;50158;51.528;6.982;2022-11-27T13:12:19;67380;;;9.27;100
51417;BME280;50158;51.528;6.982;2022-11-27T13:14:43;67370;;;9.26;100
51417;BME280;50158;51.528;6.982;2022-11-27T13:19:10;67370;;;9.24;100
51417;BME280;50158;51.528;6.982;2022-11-27T13:21:36;67380;;;9.29;100
51417;BME280;50158;51.528;6.982;2022-11-27T13:24:04;67370;;;9.24;100
51417;BME280;50158;51.528;6.982;2022-11-27T13:26:37;67380;;;9.31;100
51417;BME280;50158;51.528;6.982;2022-11-27T13:29:02;67380;;;9.28;100
51417;BME280;50158;51.528;6.982;2022-11-27T13:31:30;67400;;;9.47;100
51417;BME280;50158;51.528;6.982;2022-11-27T13:33:58;67390;;;9.37;100
51417;BME280;50158;51.528;6.982;2022-11-27T13:36:26;67390;;;9.37;100
51417;BME280;50158;51.528;6.982;2022-11-27T13:38:54;67380;;;9.33;100
51417;BME280;50158;51.528;6.982;2022-11-27T13:41:29;67380;;;9.33;100
51417;BME280;50158;51.528;6.982;2022-11-27T13:43:50;67410;;;9.55;100
51417;BME280;50158;51.528;6.982;2022-11-27T13:46:20;67410;;;9.56;100
51417;BME280;50158;51.528;6.982;2022-11-27T13:48:47;67420;;;9.68;100
51417;BME280;50158;51.528;6.982;2022-11-27T13:51:23;67420;;;9.67;100
51417;BME280;50158;51.528;6.982;2022-11-27T13:53:43;67410;;;9.63;100
51417;BME280;50158;51.528;6.982;2022-11-27T13:56:11;67410;;;9.6;100
51417;BME280;50158;51.528;6.982;2022-11-27T13:58:40;67410;;;9.6;100
51417;BME280;50158;51.528;6.982;2022-11-27T14:01:12;67420;;;9.63;100
51417;BME280;50158;51.528;6.982;2022-11-27T14:03:36;67400;;;9.5;100
51417;BME280;50158;51.528;6.982;2022-11-27T14:06:13;67400;;;9.52;100
51417;BME280;50158;51.528;6.982;2022-11-27T14:08:33;67410;;;9.55;100
51417;BME280;50158;51.528;6.982;2022-11-27T14:11:02;67420;;;9.64;100
51417;BME280;50158;51.528;6.982;2022-11-27T14:14:00;67400;;;9.47;100
51417;BME280;50158;51.528;6.982;2022-11-27T14:15:59;67390;;;9.43;100
51417;BME280;50158;51.528;6.982;2022-11-27T14:18:26;67400;;;9.46;100
51417;BME280;50158;51.528;6.982;2022-11-27T14:20:57;67380;;;9.28;100
51417;BME280;50158;51.528;6.982;2022-11-27T14:25:33;67370;;;9.21;100
51417;BME280;50158;51.528;6.982;2022-11-27T14:27:47;67370;;;9.18;100
51417;BME280;50158;51.528;6.982;2022-11-27T14:30:32;67370;;;9.26;100
51417;BME280;50158;51.528;6.982;2022-11-27T14:32:43;67360;;;9.14;100
51417;BME280;50158;51.528;6.982;2022-11-27T14:35:19;67330;;;8.89;100
51417;BME280;50158;51.528;6.982;2022-11-27T14:37:39;67320;;;8.77;100
51417;BME280;50158;51.528;6.982;2022-11-27T14:40:12;67320;;;8.75;100
51417;BME280;50158;51.528;6.982;2022-11-27T14:42:36;67290;;;8.5;100
51417;BME280;50158;51.528;6.982;2022-11-27T14:45:05;67300;;;8.6;100
51417;BME280;50158;51.528;6.982;2022-11-27T14:50:01;67270;;;8.25;100
51417;BME280;50158;51.528;6.982;2022-11-27T14:52:29;67270;;;8.25;100
51417;BME280;50158;51.528;6.982;2022-11-27T14:54:57;67250;;;8.12;100
51417;BME280;50158;51.528;6.982;2022-11-27T14:57:26;67240;;;8.03;100
51417;BME280;50158;51.528;6.982;2022-11-27T15:00:03;67240;;;7.97;100
51417;BME280;50158;51.528;6.982;2022-11-27T15:02:24;67230;;;7.92;100
51417;BME280;50158;51.528;6.982;2022-11-27T15:04:59;67230;;;7.89;100
51417;BME280;50158;51.528;6.982;2022-11-27T15:07:20;67220;;;7.83;100
51417;BME280;50158;51.528;6.982;2022-11-27T15:09:48;67210;;;7.75;100
51417;BME280;50158;51.528;6.982;2022-11-27T15:12:24;67210;;;7.72;100
51417;BME280;50158;51.528;6.982;2022-11-27T15:14:44;67210;;;7.75;100
51417;BME280;50158;51.528;6.982;2022-11-27T15:17:14;67200;;;7.62;100
51417;BME280;50158;51.528;6.982;2022-11-27T15:21:36;67200;;;7.61;100
51417;BME280;50158;51.528;6.982;2022-11-27T15:24:04;67200;;;7.61;100
51417;BME280;50158;51.528;6.982;2022-11-27T15:26:34;67190;;;7.58;100
51417;BME280;50158;51.528;6.982;2022-11-27T15:29:00;67190;;;7.57;100
51417;BME280;50158;51.528;6.982;2022-11-27T15:31:36;67190;;;7.56;100
51417;BME280;50158;51.528;6.982;2022-11-27T15:34:05;67190;;;7.56;100
51417;BME280;50158;51.528;6.982;2022-11-27T15:39:19;67190;;;7.56;100
51417;BME280;50158;51.528;6.982;2022-11-27T15:41:38;67200;;;7.64;100
51417;BME280;50158;51.528;6.982;2022-11-27T15:44:07;67200;;;7.66;100
51417;BME280;50158;51.528;6.982;2022-11-27T15:46:35;67210;;;7.72;100
51417;BME280;50158;51.528;6.982;2022-11-27T15:49:03;67200;;;7.65;100
51417;BME280;50158;51.528;6.982;2022-11-27T15:51:31;67210;;;7.71;100
51417;BME280;50158;51.528;6.982;2022-11-27T15:53:59;67200;;;7.68;100